createdAt,value
2022-07-29T00:01:20.172Z,1.90
2022-07-29T00:03:48.933Z,1.80
2022-07-29T00:06:17.323Z,1.80
2022-07-29T00:08:45.069Z,1.90
2022-07-29T00:11:13.062Z,1.60
2022-07-29T00:13:40.912Z,2.00
2022-07-29T00:16:08.695Z,1.80
2022-07-29T00:18:36.510Z,1.90
2022-07-29T00:21:04.308Z,2.00
2022-07-29T00:23:36.480Z,2.20
2022-07-29T00:26:04.625Z,1.90
2022-07-29T00:28:32.494Z,1.80
2022-07-29T00:31:00.548Z,1.90
2022-07-29T00:33:29.205Z,1.90
2022-07-29T00:35:57.255Z,2.20
2022-07-29T00:38:25.186Z,2.00
2022-07-29T00:40:53.443Z,1.80
2022-07-29T00:43:21.217Z,1.90
2022-07-29T00:45:49.021Z,2.00
2022-07-29T00:48:16.710Z,2.00
2022-07-29T00:50:44.478Z,1.90
2022-07-29T00:53:13.096Z,2.40
2022-07-29T00:55:40.949Z,2.20
2022-07-29T00:58:09.606Z,1.90
2022-07-29T01:00:37.977Z,2.10
2022-07-29T01:03:05.887Z,1.70
2022-07-29T01:05:49.926Z,2.00
2022-07-29T01:08:21.199Z,2.60
2022-07-29T01:10:50.341Z,1.90
2022-07-29T01:13:18.930Z,2.20
2022-07-29T01:16:14.013Z,2.00
2022-07-29T01:18:48.067Z,1.70
2022-07-29T01:21:43.395Z,2.20
2022-07-29T01:24:59.735Z,1.60
2022-07-29T01:28:21.458Z,1.60
2022-07-29T01:30:54.679Z,1.80
2022-07-29T01:33:44.931Z,2.00
2022-07-29T01:36:22.909Z,1.80
2022-07-29T01:39:21.050Z,1.90
2022-07-29T01:42:05.615Z,2.00
2022-07-29T01:44:42.435Z,1.70
2022-07-29T01:47:18.493Z,2.20
2022-07-29T01:49:52.455Z,1.80
2022-07-29T01:52:28.707Z,1.70
2022-07-29T01:55:02.690Z,1.70
2022-07-29T01:57:34.570Z,1.70
2022-07-29T02:00:05.314Z,1.90
2022-07-29T02:02:44.652Z,1.50
2022-07-29T02:05:17.119Z,2.10
2022-07-29T02:07:48.282Z,1.80
2022-07-29T02:10:25.847Z,1.70
2022-07-29T02:12:56.884Z,1.60
2022-07-29T02:15:29.468Z,1.60
2022-07-29T02:18:16.480Z,1.60
2022-07-29T02:20:52.818Z,1.50
2022-07-29T02:23:23.904Z,1.80
2022-07-29T02:25:57.950Z,1.80
2022-07-29T02:28:29.446Z,1.70
2022-07-29T02:31:01.931Z,1.80
2022-07-29T02:33:32.874Z,1.60
2022-07-29T02:36:02.579Z,2.00
2022-07-29T02:38:50.028Z,1.80
2022-07-29T02:41:58.313Z,1.60
2022-07-29T02:44:31.237Z,1.90
2022-07-29T02:47:22.882Z,2.10
2022-07-29T02:50:01.162Z,1.70
2022-07-29T02:53:04.410Z,1.70
2022-07-29T02:55:40.404Z,1.70
2022-07-29T02:58:29.646Z,1.80
2022-07-29T03:01:05.405Z,1.70
2022-07-29T03:03:38.862Z,2.20
2022-07-29T03:06:08.503Z,1.80
2022-07-29T03:08:37.877Z,2.20
2022-07-29T03:11:06.240Z,1.90
2022-07-29T03:13:35.814Z,2.00
2022-07-29T03:16:04.523Z,2.00
2022-07-29T03:18:33.258Z,1.70
2022-07-29T03:21:01.218Z,2.60
2022-07-29T03:23:35.241Z,1.80
2022-07-29T03:26:04.983Z,1.60
2022-07-29T03:28:32.742Z,2.10
2022-07-29T03:31:02.065Z,1.70
2022-07-29T03:33:31.274Z,2.00
2022-07-29T03:35:59.327Z,2.00
2022-07-29T03:38:31.947Z,1.80
2022-07-29T03:41:07.024Z,1.70
2022-07-29T03:43:49.124Z,2.10
2022-07-29T03:46:19.375Z,1.70
2022-07-29T03:48:53.854Z,1.90
2022-07-29T03:51:34.049Z,2.10
2022-07-29T03:54:09.667Z,2.00
2022-07-29T03:56:49.063Z,1.90
2022-07-29T03:59:20.425Z,2.00
2022-07-29T04:04:18.159Z,1.90
2022-07-29T04:06:48.180Z,2.20
2022-07-29T04:09:16.207Z,1.90
2022-07-29T04:11:59.176Z,1.60
2022-07-29T04:14:33.912Z,1.90
2022-07-29T04:17:03.782Z,1.60
2022-07-29T04:19:32.709Z,1.80
2022-07-29T04:22:01.895Z,1.80
2022-07-29T04:24:29.829Z,1.90
2022-07-29T04:26:57.551Z,2.00
2022-07-29T04:29:25.584Z,1.90
2022-07-29T04:31:53.443Z,1.80
2022-07-29T04:34:21.346Z,2.10
2022-07-29T04:36:49.238Z,1.90
2022-07-29T04:39:22.666Z,2.00
2022-07-29T04:41:52.514Z,1.90
2022-07-29T04:44:28.649Z,1.90
2022-07-29T04:46:58.482Z,1.80
2022-07-29T04:49:26.465Z,2.20
2022-07-29T04:51:54.573Z,2.00
2022-07-29T04:54:22.493Z,2.00
2022-07-29T04:56:50.205Z,1.90
2022-07-29T04:59:17.933Z,1.70
2022-07-29T05:01:45.706Z,1.60
2022-07-29T05:04:14.090Z,2.00
2022-07-29T05:06:41.963Z,2.00
2022-07-29T05:09:09.719Z,2.10
2022-07-29T05:11:37.390Z,1.90
2022-07-29T05:14:05.098Z,1.90
2022-07-29T05:16:32.810Z,2.10
2022-07-29T05:19:00.553Z,2.00
2022-07-29T05:21:28.244Z,2.10
2022-07-29T05:23:56.067Z,1.90
2022-07-29T05:26:23.807Z,1.70
2022-07-29T05:28:51.639Z,1.90
2022-07-29T05:31:19.574Z,2.00
2022-07-29T05:33:47.366Z,2.40
2022-07-29T05:36:15.110Z,2.30
2022-07-29T05:38:42.906Z,2.10
2022-07-29T05:41:10.664Z,2.20
2022-07-29T05:43:38.586Z,2.20
2022-07-29T05:46:06.383Z,2.20
2022-07-29T05:48:34.148Z,2.60
2022-07-29T05:51:02.295Z,2.10
2022-07-29T05:53:30.038Z,2.30
2022-07-29T05:55:57.806Z,2.10
2022-07-29T05:58:25.618Z,1.90
2022-07-29T06:00:53.857Z,2.00
2022-07-29T06:03:21.573Z,2.00
2022-07-29T06:05:49.307Z,1.80
2022-07-29T06:08:17.028Z,1.90
2022-07-29T06:10:44.959Z,1.60
2022-07-29T06:13:13.740Z,1.70
2022-07-29T06:15:41.838Z,2.00
2022-07-29T06:18:11.120Z,2.00
2022-07-29T06:20:39.066Z,1.80
2022-07-29T06:23:07.097Z,1.80
2022-07-29T06:25:37.577Z,1.80
2022-07-29T06:28:05.465Z,1.60
2022-07-29T06:30:33.792Z,1.90
2022-07-29T06:33:02.869Z,2.20
2022-07-29T06:35:39.042Z,1.70
2022-07-29T06:38:30.344Z,1.90
2022-07-29T06:41:00.938Z,1.80
2022-07-29T06:43:51.917Z,1.80
2022-07-29T06:46:21.649Z,2.40
2022-07-29T06:48:50.244Z,1.80
2022-07-29T06:51:22.759Z,2.30
2022-07-29T06:53:58.082Z,2.20
2022-07-29T06:56:26.547Z,2.00
2022-07-29T06:58:54.258Z,1.90
2022-07-29T07:01:22.160Z,2.10
2022-07-29T07:03:50.700Z,2.10
2022-07-29T07:06:18.473Z,1.90
2022-07-29T07:08:46.368Z,2.20
2022-07-29T07:11:14.189Z,1.80
2022-07-29T07:13:41.970Z,2.00
2022-07-29T07:16:09.930Z,2.10
2022-07-29T07:18:37.673Z,2.60
2022-07-29T07:21:06.630Z,1.70
2022-07-29T07:23:34.282Z,1.90
2022-07-29T07:26:02.006Z,2.10
2022-07-29T07:28:30.246Z,2.00
2022-07-29T07:30:57.983Z,1.90
2022-07-29T07:33:25.758Z,2.00
2022-07-29T07:35:53.517Z,2.00
2022-07-29T07:38:21.211Z,2.00
2022-07-29T07:40:48.951Z,2.20
2022-07-29T07:43:16.707Z,1.80
2022-07-29T07:45:44.607Z,2.50
2022-07-29T07:48:12.435Z,1.60
2022-07-29T07:50:40.266Z,1.50
2022-07-29T07:53:08.168Z,1.60
2022-07-29T07:56:08.175Z,2.00
2022-07-29T07:58:29.864Z,1.70
2022-07-29T08:00:57.825Z,1.50
2022-07-29T08:03:25.595Z,1.90
2022-07-29T08:05:55.137Z,1.70
2022-07-29T08:08:22.864Z,1.90
2022-07-29T08:10:53.672Z,1.40
2022-07-29T08:13:24.842Z,1.70
2022-07-29T08:18:29.848Z,1.40
2022-07-29T08:20:58.682Z,1.60
2022-07-29T08:23:32.948Z,1.60
2022-07-29T08:26:15.265Z,1.50
2022-07-29T08:28:46.795Z,1.80
2022-07-29T08:31:15.250Z,1.70
2022-07-29T08:33:43.729Z,1.70
2022-07-29T08:36:11.483Z,1.50
2022-07-29T08:38:39.227Z,1.30
2022-07-29T08:41:07.090Z,1.60
2022-07-29T08:43:38.211Z,1.70
2022-07-29T08:46:06.048Z,1.70
2022-07-29T08:48:35.285Z,1.50
2022-07-29T08:51:04.560Z,1.20
2022-07-29T08:53:33.965Z,1.40
2022-07-29T08:56:02.908Z,1.30
2022-07-29T08:58:36.915Z,1.60
2022-07-29T09:01:09.913Z,1.60
2022-07-29T09:03:42.377Z,1.60
2022-07-29T09:06:13.427Z,1.50
2022-07-29T09:11:09.706Z,1.70
2022-07-29T09:13:37.420Z,1.50
2022-07-29T09:16:09.397Z,1.50
2022-07-29T09:18:44.022Z,1.40
2022-07-29T09:21:36.976Z,1.30
2022-07-29T09:24:14.533Z,1.40
2022-07-29T09:26:47.017Z,1.50
2022-07-29T09:29:20.999Z,1.40
2022-07-29T09:31:53.251Z,1.40
2022-07-29T09:34:29.612Z,1.50
2022-07-29T09:36:58.272Z,1.40
2022-07-29T09:39:38.959Z,1.60
2022-07-29T09:42:07.602Z,1.50
2022-07-29T09:44:51.238Z,1.60
2022-07-29T09:47:22.736Z,1.40
2022-07-29T09:50:00.499Z,1.40
2022-07-29T09:52:30.895Z,1.70
2022-07-29T09:55:18.267Z,1.50
2022-07-29T09:57:48.377Z,1.70
2022-07-29T10:00:19.862Z,2.10
2022-07-29T10:02:48.839Z,2.00
2022-07-29T10:05:26.770Z,2.00
2022-07-29T10:08:06.141Z,1.80
2022-07-29T10:10:41.044Z,1.50
2022-07-29T10:13:15.672Z,1.70
2022-07-29T10:15:46.863Z,1.80
2022-07-29T10:18:18.335Z,1.70
2022-07-29T10:20:46.375Z,1.90
2022-07-29T10:23:14.969Z,1.70
2022-07-29T10:25:46.382Z,1.80
2022-07-29T10:28:16.686Z,1.50
2022-07-29T10:30:46.909Z,1.70
2022-07-29T10:33:37.755Z,2.10
2022-07-29T10:37:11.574Z,1.90
2022-07-29T10:40:51.029Z,1.90
2022-07-29T10:43:28.234Z,2.00
2022-07-29T10:46:00.880Z,2.00
2022-07-29T10:48:28.949Z,2.10
2022-07-29T10:51:07.026Z,2.50
2022-07-29T10:53:51.942Z,1.90
2022-07-29T10:56:25.608Z,2.50
2022-07-29T10:59:21.633Z,2.40
2022-07-29T11:01:56.672Z,2.30
2022-07-29T11:04:45.857Z,1.90
2022-07-29T11:07:17.255Z,2.40
2022-07-29T11:09:46.508Z,2.70
2022-07-29T11:12:37.417Z,2.40
2022-07-29T11:15:09.678Z,2.00
2022-07-29T11:17:55.407Z,2.20
2022-07-29T11:23:42.785Z,2.10
2022-07-29T11:26:10.790Z,2.10
2022-07-29T11:28:51.140Z,2.70
2022-07-29T11:31:45.635Z,2.10
2022-07-29T11:34:21.072Z,2.10
2022-07-29T11:37:12.454Z,2.40
2022-07-29T11:39:46.237Z,2.50
2022-07-29T11:45:43.140Z,2.30
2022-07-29T11:48:29.894Z,2.30
2022-07-29T11:51:00.831Z,2.60
2022-07-29T11:53:33.034Z,2.30
2022-07-29T11:56:02.612Z,2.40
2022-07-29T11:58:32.453Z,2.40
2022-07-29T12:01:04.998Z,2.10
2022-07-29T12:03:36.111Z,2.40
2022-07-29T12:06:21.841Z,2.50
2022-07-29T12:07:03.261Z,2.30
2022-07-29T12:08:49.636Z,2.50
2022-07-29T12:11:21.801Z,2.30
2022-07-29T12:13:52.266Z,2.80
2022-07-29T12:16:25.677Z,2.60
2022-07-29T12:18:59.767Z,2.60
2022-07-29T12:21:28.927Z,3.20
2022-07-29T12:24:03.414Z,3.10
2022-07-29T12:26:34.306Z,3.00
2022-07-29T12:29:04.323Z,2.80
2022-07-29T12:31:43.406Z,2.70
2022-07-29T12:34:16.571Z,2.70
2022-07-29T12:36:44.727Z,2.60
2022-07-29T12:39:13.415Z,2.70
2022-07-29T12:41:41.301Z,3.00
2022-07-29T12:44:09.101Z,2.40
2022-07-29T12:46:37.200Z,3.10
2022-07-29T12:49:05.544Z,2.60
2022-07-29T12:51:39.978Z,2.40
2022-07-29T12:54:11.541Z,2.50
2022-07-29T12:56:43.648Z,2.40
2022-07-29T12:59:23.247Z,2.30
2022-07-29T13:01:53.140Z,2.60
2022-07-29T13:04:30.226Z,3.10
2022-07-29T13:07:08.332Z,2.50
2022-07-29T13:09:43.968Z,2.30
2022-07-29T13:12:14.471Z,2.40
2022-07-29T13:14:50.772Z,2.20
2022-07-29T13:17:23.806Z,2.40
2022-07-29T13:20:09.699Z,2.20
2022-07-29T13:22:37.378Z,2.40
2022-07-29T13:25:08.876Z,2.50
2022-07-29T13:27:39.310Z,2.80
2022-07-29T13:30:10.296Z,2.10
2022-07-29T13:32:38.618Z,2.50
2022-07-29T13:35:09.275Z,3.10
2022-07-29T13:37:39.553Z,2.30
2022-07-29T13:40:10.306Z,2.50
2022-07-29T13:42:38.651Z,2.40
2022-07-29T13:45:07.763Z,2.50
2022-07-29T13:47:35.952Z,2.90
2022-07-29T13:50:10.810Z,2.70
2022-07-29T13:52:39.218Z,2.40
2022-07-29T13:55:08.234Z,2.50
2022-07-29T13:57:36.539Z,2.50
2022-07-29T14:00:05.050Z,2.40
2022-07-29T14:02:36.240Z,2.50
2022-07-29T14:05:08.285Z,2.20
2022-07-29T14:07:39.561Z,2.10
2022-07-29T14:10:08.230Z,2.50
2022-07-29T14:12:35.989Z,2.50
2022-07-29T14:15:04.386Z,2.70
2022-07-29T14:17:32.125Z,2.50
2022-07-29T14:19:59.817Z,2.50
2022-07-29T14:22:27.585Z,2.50
2022-07-29T14:24:55.309Z,3.00
2022-07-29T14:27:37.399Z,2.30
2022-07-29T14:30:07.727Z,2.40
2022-07-29T14:32:35.615Z,2.60
2022-07-29T14:35:03.749Z,2.50
2022-07-29T14:37:39.391Z,2.70
2022-07-29T14:40:10.575Z,2.50
2022-07-29T14:42:39.328Z,2.40
2022-07-29T14:45:09.519Z,2.20
2022-07-29T14:47:39.066Z,2.20
2022-07-29T14:50:07.940Z,2.40
2022-07-29T14:52:36.154Z,2.30
2022-07-29T14:55:05.560Z,2.70
2022-07-29T14:57:44.435Z,2.60
2022-07-29T15:00:13.771Z,2.30
2022-07-29T15:03:01.001Z,2.30
2022-07-29T15:05:30.863Z,2.50
2022-07-29T15:08:00.530Z,2.50
2022-07-29T15:10:28.424Z,2.10
2022-07-29T15:12:58.041Z,2.40
2022-07-29T15:15:26.377Z,2.50
2022-07-29T15:17:54.177Z,2.30
2022-07-29T15:20:22.445Z,2.40
2022-07-29T15:22:50.194Z,2.50
2022-07-29T15:25:17.995Z,2.50
2022-07-29T15:27:48.970Z,2.30
2022-07-29T15:30:31.455Z,2.50
2022-07-29T15:35:32.261Z,2.50
2022-07-29T15:38:00.038Z,2.60
2022-07-29T15:40:29.075Z,2.50
2022-07-29T15:42:57.154Z,2.50
2022-07-29T15:45:25.163Z,2.60
2022-07-29T15:47:52.828Z,2.50
2022-07-29T15:50:21.195Z,2.40
2022-07-29T15:52:48.993Z,2.30
2022-07-29T15:55:16.778Z,2.40
2022-07-29T15:57:44.490Z,2.20
2022-07-29T16:00:13.770Z,2.30
2022-07-29T16:02:41.581Z,2.40
2022-07-29T16:05:09.738Z,2.50
2022-07-29T16:07:37.800Z,3.10
2022-07-29T16:10:07.855Z,2.20
2022-07-29T16:12:35.659Z,2.60
2022-07-29T16:15:09.422Z,2.60
2022-07-29T16:17:39.058Z,2.90
2022-07-29T16:20:08.109Z,2.40
2022-07-29T16:22:36.261Z,2.80
2022-07-29T16:25:04.571Z,2.30
2022-07-29T16:27:37.397Z,2.30
2022-07-29T16:30:10.282Z,2.40
2022-07-29T16:32:38.240Z,2.50
2022-07-29T16:35:07.920Z,2.90
2022-07-29T16:37:37.121Z,2.60
2022-07-29T16:40:06.981Z,2.50
2022-07-29T16:42:50.713Z,2.50
2022-07-29T16:45:21.305Z,2.90
2022-07-29T16:50:17.856Z,2.50
2022-07-29T16:52:45.590Z,2.60
2022-07-29T16:55:13.317Z,2.50
2022-07-29T16:57:42.707Z,2.70
2022-07-29T17:00:11.698Z,2.70
2022-07-29T17:02:39.490Z,3.00
2022-07-29T17:05:08.752Z,2.70
2022-07-29T17:07:37.136Z,2.70
2022-07-29T17:10:08.099Z,3.10
2022-07-29T17:12:37.925Z,2.60
2022-07-29T17:15:09.446Z,2.90
2022-07-29T17:17:38.857Z,2.80
2022-07-29T17:20:14.927Z,3.00
2022-07-29T17:25:21.201Z,2.60
2022-07-29T17:27:50.910Z,5.50
2022-07-29T17:30:18.889Z,2.80
2022-07-29T17:32:46.660Z,2.60
2022-07-29T17:35:32.879Z,2.80
2022-07-29T17:38:00.665Z,3.10
2022-07-29T17:40:28.509Z,2.80
2022-07-29T17:42:56.437Z,2.80
2022-07-29T17:45:24.361Z,2.60
2022-07-29T17:47:52.086Z,2.70
2022-07-29T17:50:19.814Z,2.70
2022-07-29T17:52:47.559Z,3.00
2022-07-29T17:55:15.361Z,2.60
2022-07-29T17:57:43.095Z,2.60
2022-07-29T18:00:11.423Z,2.70
2022-07-29T18:02:39.428Z,2.60
2022-07-29T18:05:07.641Z,2.80
2022-07-29T18:07:35.428Z,2.90
2022-07-29T18:10:03.646Z,2.70
2022-07-29T18:12:31.585Z,3.00
2022-07-29T18:14:59.326Z,2.80
2022-07-29T18:17:45.986Z,2.80
2022-07-29T18:20:15.486Z,2.80
2022-07-29T18:22:43.312Z,2.90
2022-07-29T18:25:12.016Z,2.80
2022-07-29T18:27:40.129Z,3.30
2022-07-29T18:30:08.753Z,3.10
2022-07-29T18:32:36.753Z,2.70
2022-07-29T18:35:05.814Z,2.60
2022-07-29T18:38:02.069Z,2.70
2022-07-29T18:40:25.314Z,2.60
2022-07-29T18:42:53.538Z,2.90
2022-07-29T18:45:21.383Z,2.80
2022-07-29T18:47:49.510Z,2.50
2022-07-29T18:50:17.624Z,3.00
2022-07-29T18:52:48.378Z,3.10
2022-07-29T18:55:16.166Z,2.80
2022-07-29T18:57:55.336Z,2.70
2022-07-29T19:00:26.488Z,3.20
2022-07-29T19:02:54.358Z,2.70
2022-07-29T19:05:23.355Z,2.80
2022-07-29T19:07:51.153Z,3.20
2022-07-29T19:10:18.910Z,3.10
2022-07-29T19:12:46.644Z,2.70
2022-07-29T19:15:19.993Z,2.90
2022-07-29T19:17:48.803Z,2.80
2022-07-29T19:20:16.919Z,3.20
2022-07-29T19:22:44.875Z,3.10
2022-07-29T19:25:12.692Z,2.90
2022-07-29T19:27:41.794Z,2.70
2022-07-29T19:30:10.136Z,3.20
2022-07-29T19:32:38.814Z,2.90
2022-07-29T19:35:25.543Z,3.10
2022-07-29T19:37:55.612Z,3.10
2022-07-29T19:40:23.702Z,3.30
2022-07-29T19:42:52.989Z,3.40
2022-07-29T19:45:24.617Z,3.30
2022-07-29T19:47:53.481Z,3.10
2022-07-29T19:52:53.193Z,2.80
2022-07-29T19:55:21.860Z,3.30
2022-07-29T19:57:52.602Z,3.50
2022-07-29T20:00:21.414Z,3.80
2022-07-29T20:02:49.910Z,4.30
2022-07-29T20:05:18.590Z,4.20
2022-07-29T20:07:47.788Z,4.00
2022-07-29T20:10:15.849Z,4.70
2022-07-29T20:12:43.705Z,4.70
2022-07-29T20:15:16.354Z,5.00
2022-07-29T20:17:44.663Z,5.00
2022-07-29T20:20:12.482Z,4.60
2022-07-29T20:22:40.185Z,5.10
2022-07-29T20:25:09.932Z,5.30
2022-07-29T20:27:40.467Z,5.00
2022-07-29T20:30:09.063Z,5.30
2022-07-29T20:32:40.826Z,4.10
2022-07-29T20:35:09.923Z,4.60
2022-07-29T20:37:52.246Z,4.30
2022-07-29T20:40:26.019Z,4.00
2022-07-29T20:42:55.555Z,4.60
2022-07-29T20:45:24.822Z,4.20
2022-07-29T20:47:53.280Z,3.80
2022-07-29T20:50:23.869Z,4.60
2022-07-29T20:55:21.314Z,4.00
2022-07-29T20:57:49.046Z,4.00
2022-07-29T21:00:17.138Z,3.60
2022-07-29T21:02:44.882Z,3.80
2022-07-29T21:05:12.674Z,3.60
2022-07-29T21:07:40.450Z,3.50
2022-07-29T21:10:08.574Z,3.70
2022-07-29T21:12:36.526Z,3.20
2022-07-29T21:15:06.502Z,3.70
2022-07-29T21:17:36.111Z,3.30
2022-07-29T21:20:05.435Z,3.30
2022-07-29T21:22:33.186Z,3.20
2022-07-29T21:25:01.671Z,3.40
2022-07-29T21:27:48.138Z,3.60
2022-07-29T21:30:16.005Z,3.20
2022-07-29T21:32:43.978Z,3.20
2022-07-29T21:35:23.409Z,3.30
2022-07-29T21:37:59.736Z,3.20
2022-07-29T21:40:27.549Z,2.90
2022-07-29T21:42:55.247Z,3.00
2022-07-29T21:45:23.004Z,3.20
2022-07-29T21:47:50.840Z,3.10
2022-07-29T21:50:18.843Z,2.90
2022-07-29T21:52:46.577Z,3.10
2022-07-29T21:55:15.334Z,3.30
2022-07-29T21:57:46.351Z,3.00
2022-07-29T22:00:17.561Z,3.30
2022-07-29T22:02:45.660Z,2.80
2022-07-29T22:05:14.933Z,2.80
2022-07-29T22:07:56.477Z,3.00
2022-07-29T22:10:26.821Z,2.90
2022-07-29T22:12:57.120Z,2.90
2022-07-29T22:15:26.398Z,2.80
2022-07-29T22:17:54.175Z,3.00
2022-07-29T22:20:23.586Z,3.20
2022-07-29T22:22:51.676Z,3.10
2022-07-29T22:25:20.066Z,3.20
2022-07-29T22:27:48.367Z,3.10
2022-07-29T22:30:17.022Z,3.10
2022-07-29T22:32:44.958Z,3.00
2022-07-29T22:35:12.688Z,3.30
2022-07-29T22:37:40.410Z,3.10
2022-07-29T22:40:08.709Z,3.50
2022-07-29T22:42:36.617Z,3.70
2022-07-29T22:45:10.618Z,5.20
2022-07-29T22:47:47.947Z,5.40
2022-07-29T22:50:17.429Z,5.70
2022-07-29T22:52:46.880Z,5.70
2022-07-29T22:55:15.450Z,5.10
2022-07-29T22:57:43.271Z,5.60
2022-07-29T23:00:12.752Z,5.80
2022-07-29T23:02:41.384Z,5.10
2022-07-29T23:05:10.518Z,5.20
2022-07-29T23:07:38.634Z,4.50
2022-07-29T23:10:07.012Z,4.30
2022-07-29T23:12:34.905Z,3.70
2022-07-29T23:15:02.712Z,3.60
2022-07-29T23:17:36.106Z,3.60
2022-07-29T23:20:09.818Z,3.70
2022-07-29T23:22:37.830Z,3.50
2022-07-29T23:25:06.669Z,3.10
2022-07-29T23:27:34.582Z,3.40
2022-07-29T23:30:02.717Z,3.80
2022-07-29T23:32:30.539Z,3.50
2022-07-29T23:34:58.275Z,3.50
2022-07-29T23:37:26.806Z,3.70
2022-07-29T23:39:54.834Z,4.10
2022-07-29T23:42:22.823Z,3.90
2022-07-29T23:44:50.781Z,4.40
2022-07-29T23:47:18.556Z,4.70
2022-07-29T23:49:46.501Z,4.30
2022-07-29T23:52:14.237Z,5.10
2022-07-29T23:54:42.139Z,4.40
2022-07-29T23:57:09.873Z,4.60
2022-07-29T23:59:37.606Z,4.10
